Auburn, New Jersey
Current Conditions -  °F | °C
As of 7:54 AM on Sunday 23 Nov 2014 (Local Time) from KPHL Reporting Station
Broken Clouds Broken Clouds  
Wind Chill: 38°   Ceiling: 16000
Heat Index: 43°   Visibility: 10mi
Dew Point: 24°   Wind: 8mph
Humidity: 47%   Direction: 190°S
Pressure: 30.25"   Gusts: NA
Location:  39.757°N, 75.3338°W
Report Text: KPHL 231254Z 19007KT 10SM SCT090 BKN160 BKN250 06/M04 A3025 RMK AO2 SLP244 T00611044 $
Loading
Personal Weather Stations






























Interactive Weather Map New forecast layout! Learn more

10-Day Weather Forecast

Advertisements
Track Severe Weather on mobile